sensor_id;sensor_type;location;lat;lon;timestamp;P1;durP1;ratioP1;P2;durP2;ratioP2
68384;SDS011;55336;43.062;25.626;2023-12-20T00:02:19;59.35;;;40.55;;
68384;SDS011;55336;43.062;25.626;2023-12-20T00:04:45;60.08;;;41.28;;
68384;SDS011;55336;43.062;25.626;2023-12-20T00:07:11;58.63;;;40.67;;
68384;SDS011;55336;43.062;25.626;2023-12-20T00:09:37;61.78;;;41.15;;
68384;SDS011;55336;43.062;25.626;2023-12-20T00:12:03;63.15;;;44.15;;
68384;SDS011;55336;43.062;25.626;2023-12-20T00:14:28;67.90;;;43.88;;
68384;SDS011;55336;43.062;25.626;2023-12-20T00:16:54;62.42;;;43.15;;
68384;SDS011;55336;43.062;25.626;2023-12-20T00:19:20;66.97;;;44.55;;
68384;SDS011;55336;43.062;25.626;2023-12-20T00:21:46;71.03;;;44.75;;
68384;SDS011;55336;43.062;25.626;2023-12-20T00:24:11;65.93;;;45.80;;
68384;SDS011;55336;43.062;25.626;2023-12-20T00:26:37;80.68;;;51.65;;
68384;SDS011;55336;43.062;25.626;2023-12-20T00:29:03;76.32;;;49.42;;
68384;SDS011;55336;43.062;25.626;2023-12-20T00:31:29;76.93;;;49.67;;
68384;SDS011;55336;43.062;25.626;2023-12-20T00:33:54;72.22;;;49.25;;
68384;SDS011;55336;43.062;25.626;2023-12-20T00:36:20;72.60;;;47.53;;
68384;SDS011;55336;43.062;25.626;2023-12-20T00:38:47;72.45;;;45.95;;
68384;SDS011;55336;43.062;25.626;2023-12-20T00:41:13;70.00;;;45.22;;
68384;SDS011;55336;43.062;25.626;2023-12-20T00:43:39;77.05;;;49.20;;
68384;SDS011;55336;43.062;25.626;2023-12-20T00:46:05;69.93;;;49.13;;
68384;SDS011;55336;43.062;25.626;2023-12-20T00:48:30;75.93;;;45.80;;
68384;SDS011;55336;43.062;25.626;2023-12-20T00:50:57;66.47;;;44.88;;
68384;SDS011;55336;43.062;25.626;2023-12-20T00:53:22;60.28;;;44.03;;
68384;SDS011;55336;43.062;25.626;2023-12-20T00:55:48;64.03;;;44.47;;
68384;SDS011;55336;43.062;25.626;2023-12-20T00:58:16;66.55;;;45.00;;
68384;SDS011;55336;43.062;25.626;2023-12-20T01:00:42;61.97;;;43.95;;
68384;SDS011;55336;43.062;25.626;2023-12-20T01:03:09;72.93;;;43.78;;
68384;SDS011;55336;43.062;25.626;2023-12-20T01:05:34;63.45;;;44.28;;
68384;SDS011;55336;43.062;25.626;2023-12-20T01:08:00;59.17;;;42.60;;
68384;SDS011;55336;43.062;25.626;2023-12-20T01:10:28;71.45;;;44.40;;
68384;SDS011;55336;43.062;25.626;2023-12-20T01:12:54;65.90;;;42.65;;
68384;SDS011;55336;43.062;25.626;2023-12-20T01:15:20;65.25;;;44.47;;
68384;SDS011;55336;43.062;25.626;2023-12-20T01:17:46;69.78;;;46.28;;
68384;SDS011;55336;43.062;25.626;2023-12-20T01:20:12;67.88;;;46.15;;
68384;SDS011;55336;43.062;25.626;2023-12-20T01:22:38;66.78;;;46.67;;
68384;SDS011;55336;43.062;25.626;2023-12-20T01:25:04;76.50;;;51.90;;
68384;SDS011;55336;43.062;25.626;2023-12-20T01:27:30;72.57;;;50.78;;
68384;SDS011;55336;43.062;25.626;2023-12-20T01:29:56;78.65;;;54.33;;
68384;SDS011;55336;43.062;25.626;2023-12-20T01:32:22;85.03;;;57.67;;
68384;SDS011;55336;43.062;25.626;2023-12-20T01:34:48;91.32;;;60.75;;
68384;SDS011;55336;43.062;25.626;2023-12-20T01:37:14;81.68;;;57.38;;
68384;SDS011;55336;43.062;25.626;2023-12-20T01:39:39;76.03;;;52.65;;
68384;SDS011;55336;43.062;25.626;2023-12-20T01:42:05;77.18;;;48.78;;
68384;SDS011;55336;43.062;25.626;2023-12-20T01:44:31;78.32;;;49.10;;
68384;SDS011;55336;43.062;25.626;2023-12-20T01:46:56;71.88;;;49.47;;
68384;SDS011;55336;43.062;25.626;2023-12-20T01:49:22;77.25;;;50.45;;
68384;SDS011;55336;43.062;25.626;2023-12-20T01:51:49;74.68;;;49.78;;
68384;SDS011;55336;43.062;25.626;2023-12-20T01:54:15;71.70;;;47.95;;
68384;SDS011;55336;43.062;25.626;2023-12-20T01:56:41;72.80;;;51.60;;
68384;SDS011;55336;43.062;25.626;2023-12-20T01:59:07;77.00;;;48.83;;
68384;SDS011;55336;43.062;25.626;2023-12-20T02:01:34;73.22;;;48.97;;
68384;SDS011;55336;43.062;25.626;2023-12-20T02:04:00;75.65;;;50.60;;
68384;SDS011;55336;43.062;25.626;2023-12-20T02:06:30;66.78;;;48.40;;
68384;SDS011;55336;43.062;25.626;2023-12-20T02:08:58;73.45;;;50.00;;
68384;SDS011;55336;43.062;25.626;2023-12-20T02:11:27;70.90;;;48.65;;
68384;SDS011;55336;43.062;25.626;2023-12-20T02:13:53;70.78;;;49.78;;
68384;SDS011;55336;43.062;25.626;2023-12-20T02:16:19;73.22;;;50.03;;
68384;SDS011;55336;43.062;25.626;2023-12-20T02:18:46;77.85;;;51.30;;
68384;SDS011;55336;43.062;25.626;2023-12-20T02:21:12;74.93;;;54.00;;
68384;SDS011;55336;43.062;25.626;2023-12-20T02:23:38;73.60;;;51.42;;
68384;SDS011;55336;43.062;25.626;2023-12-20T02:26:03;79.65;;;53.13;;
68384;SDS011;55336;43.062;25.626;2023-12-20T02:28:30;78.05;;;50.50;;
68384;SDS011;55336;43.062;25.626;2023-12-20T02:30:57;69.53;;;50.20;;
68384;SDS011;55336;43.062;25.626;2023-12-20T02:33:22;83.43;;;52.13;;
68384;SDS011;55336;43.062;25.626;2023-12-20T02:35:48;75.30;;;48.95;;
68384;SDS011;55336;43.062;25.626;2023-12-20T02:38:14;76.38;;;51.17;;
68384;SDS011;55336;43.062;25.626;2023-12-20T02:40:40;77.50;;;49.10;;
68384;SDS011;55336;43.062;25.626;2023-12-20T02:43:05;76.53;;;49.15;;
68384;SDS011;55336;43.062;25.626;2023-12-20T02:45:31;79.97;;;52.30;;
68384;SDS011;55336;43.062;25.626;2023-12-20T02:47:57;78.07;;;51.45;;
68384;SDS011;55336;43.062;25.626;2023-12-20T02:50:23;73.15;;;49.75;;
68384;SDS011;55336;43.062;25.626;2023-12-20T02:52:49;73.10;;;50.55;;
68384;SDS011;55336;43.062;25.626;2023-12-20T02:55:14;76.05;;;49.85;;
68384;SDS011;55336;43.062;25.626;2023-12-20T02:57:40;68.70;;;46.92;;
68384;SDS011;55336;43.062;25.626;2023-12-20T03:00:07;70.53;;;45.58;;
68384;SDS011;55336;43.062;25.626;2023-12-20T03:02:34;66.05;;;43.90;;
68384;SDS011;55336;43.062;25.626;2023-12-20T03:05:00;69.82;;;46.05;;
68384;SDS011;55336;43.062;25.626;2023-12-20T03:07:27;69.13;;;47.00;;
68384;SDS011;55336;43.062;25.626;2023-12-20T03:09:52;65.43;;;45.78;;
68384;SDS011;55336;43.062;25.626;2023-12-20T03:12:18;72.10;;;46.45;;
68384;SDS011;55336;43.062;25.626;2023-12-20T03:14:44;69.90;;;46.63;;
68384;SDS011;55336;43.062;25.626;2023-12-20T03:17:10;60.65;;;44.47;;
68384;SDS011;55336;43.062;25.626;2023-12-20T03:19:36;67.13;;;45.65;;
68384;SDS011;55336;43.062;25.626;2023-12-20T03:22:02;82.93;;;52.40;;
68384;SDS011;55336;43.062;25.626;2023-12-20T03:24:27;86.47;;;52.53;;
68384;SDS011;55336;43.062;25.626;2023-12-20T03:26:53;83.47;;;50.60;;
68384;SDS011;55336;43.062;25.626;2023-12-20T03:29:19;75.45;;;48.05;;
68384;SDS011;55336;43.062;25.626;2023-12-20T03:31:48;68.47;;;44.50;;
68384;SDS011;55336;43.062;25.626;2023-12-20T03:34:14;71.80;;;45.38;;
68384;SDS011;55336;43.062;25.626;2023-12-20T03:36:39;70.55;;;47.85;;
68384;SDS011;55336;43.062;25.626;2023-12-20T03:39:05;74.30;;;47.15;;
68384;SDS011;55336;43.062;25.626;2023-12-20T03:41:31;76.65;;;47.08;;
68384;SDS011;55336;43.062;25.626;2023-12-20T03:43:57;69.72;;;45.47;;
68384;SDS011;55336;43.062;25.626;2023-12-20T03:46:22;64.30;;;42.97;;
68384;SDS011;55336;43.062;25.626;2023-12-20T03:48:48;68.95;;;43.75;;
68384;SDS011;55336;43.062;25.626;2023-12-20T03:51:14;62.33;;;42.38;;
68384;SDS011;55336;43.062;25.626;2023-12-20T03:53:40;67.88;;;47.10;;
68384;SDS011;55336;43.062;25.626;2023-12-20T03:56:06;75.22;;;46.88;;
68384;SDS011;55336;43.062;25.626;2023-12-20T03:58:31;66.47;;;47.72;;
68384;SDS011;55336;43.062;25.626;2023-12-20T04:00:57;77.13;;;50.40;;
68384;SDS011;55336;43.062;25.626;2023-12-20T04:03:23;95.55;;;61.70;;
68384;SDS011;55336;43.062;25.626;2023-12-20T04:05:49;91.57;;;60.42;;
68384;SDS011;55336;43.062;25.626;2023-12-20T04:08:14;94.97;;;61.33;;
68384;SDS011;55336;43.062;25.626;2023-12-20T04:10:40;91.18;;;60.88;;
68384;SDS011;55336;43.062;25.626;2023-12-20T04:13:06;86.80;;;61.95;;
68384;SDS011;55336;43.062;25.626;2023-12-20T04:15:32;78.85;;;54.60;;
68384;SDS011;55336;43.062;25.626;2023-12-20T04:17:58;83.55;;;51.97;;
68384;SDS011;55336;43.062;25.626;2023-12-20T04:20:23;83.10;;;51.42;;
68384;SDS011;55336;43.062;25.626;2023-12-20T04:22:49;91.25;;;58.33;;
68384;SDS011;55336;43.062;25.626;2023-12-20T04:25:15;83.20;;;53.83;;
68384;SDS011;55336;43.062;25.626;2023-12-20T04:27:41;84.38;;;55.40;;
68384;SDS011;55336;43.062;25.626;2023-12-20T04:30:07;85.72;;;53.40;;
68384;SDS011;55336;43.062;25.626;2023-12-20T04:32:33;81.10;;;50.67;;
68384;SDS011;55336;43.062;25.626;2023-12-20T04:34:58;78.20;;;53.28;;
68384;SDS011;55336;43.062;25.626;2023-12-20T04:37:24;78.47;;;53.60;;
68384;SDS011;55336;43.062;25.626;2023-12-20T04:39:50;82.32;;;56.17;;
68384;SDS011;55336;43.062;25.626;2023-12-20T04:42:15;89.20;;;58.33;;
68384;SDS011;55336;43.062;25.626;2023-12-20T04:44:41;90.82;;;58.17;;
68384;SDS011;55336;43.062;25.626;2023-12-20T04:47:09;84.93;;;55.70;;
68384;SDS011;55336;43.062;25.626;2023-12-20T04:49:34;75.88;;;51.47;;
68384;SDS011;55336;43.062;25.626;2023-12-20T04:52:00;81.75;;;52.08;;
68384;SDS011;55336;43.062;25.626;2023-12-20T04:54:26;86.50;;;52.75;;
68384;SDS011;55336;43.062;25.626;2023-12-20T04:56:51;83.28;;;51.65;;
68384;SDS011;55336;43.062;25.626;2023-12-20T04:59:17;86.22;;;53.72;;
68384;SDS011;55336;43.062;25.626;2023-12-20T05:01:43;79.60;;;54.05;;
68384;SDS011;55336;43.062;25.626;2023-12-20T05:04:09;75.35;;;51.42;;
68384;SDS011;55336;43.062;25.626;2023-12-20T05:06:35;76.97;;;49.58;;
68384;SDS011;55336;43.062;25.626;2023-12-20T05:09:00;80.70;;;50.10;;
68384;SDS011;55336;43.062;25.626;2023-12-20T05:11:26;76.57;;;49.92;;
68384;SDS011;55336;43.062;25.626;2023-12-20T05:13:52;78.70;;;51.03;;
68384;SDS011;55336;43.062;25.626;2023-12-20T05:16:18;78.63;;;51.67;;
68384;SDS011;55336;43.062;25.626;2023-12-20T05:18:44;79.03;;;51.45;;
68384;SDS011;55336;43.062;25.626;2023-12-20T05:21:10;78.45;;;52.65;;
68384;SDS011;55336;43.062;25.626;2023-12-20T05:23:36;79.05;;;51.97;;
68384;SDS011;55336;43.062;25.626;2023-12-20T05:26:02;88.97;;;53.38;;
68384;SDS011;55336;43.062;25.626;2023-12-20T05:28:28;88.07;;;49.55;;
68384;SDS011;55336;43.062;25.626;2023-12-20T05:30:54;90.97;;;51.83;;
68384;SDS011;55336;43.062;25.626;2023-12-20T05:33:19;85.85;;;51.65;;
68384;SDS011;55336;43.062;25.626;2023-12-20T05:35:45;77.30;;;49.75;;
68384;SDS011;55336;43.062;25.626;2023-12-20T05:38:11;77.68;;;47.58;;
68384;SDS011;55336;43.062;25.626;2023-12-20T05:40:37;76.97;;;47.72;;
68384;SDS011;55336;43.062;25.626;2023-12-20T05:43:02;75.32;;;47.90;;
68384;SDS011;55336;43.062;25.626;2023-12-20T05:45:28;74.75;;;48.40;;
68384;SDS011;55336;43.062;25.626;2023-12-20T05:47:54;81.35;;;49.58;;
68384;SDS011;55336;43.062;25.626;2023-12-20T05:50:20;74.65;;;49.08;;
68384;SDS011;55336;43.062;25.626;2023-12-20T05:52:46;80.45;;;51.03;;
68384;SDS011;55336;43.062;25.626;2023-12-20T05:55:12;78.03;;;51.50;;
68384;SDS011;55336;43.062;25.626;2023-12-20T05:57:38;76.97;;;51.75;;
68384;SDS011;55336;43.062;25.626;2023-12-20T06:00:04;85.65;;;51.00;;
68384;SDS011;55336;43.062;25.626;2023-12-20T06:02:31;83.40;;;51.45;;
68384;SDS011;55336;43.062;25.626;2023-12-20T06:04:57;74.97;;;46.88;;
68384;SDS011;55336;43.062;25.626;2023-12-20T06:07:23;87.78;;;49.92;;
68384;SDS011;55336;43.062;25.626;2023-12-20T06:09:49;94.90;;;50.25;;
68384;SDS011;55336;43.062;25.626;2023-12-20T06:12:15;79.10;;;50.03;;
68384;SDS011;55336;43.062;25.626;2023-12-20T06:14:40;81.38;;;50.78;;
68384;SDS011;55336;43.062;25.626;2023-12-20T06:17:06;76.72;;;49.70;;
68384;SDS011;55336;43.062;25.626;2023-12-20T06:19:32;82.57;;;50.88;;
68384;SDS011;55336;43.062;25.626;2023-12-20T06:21:58;91.95;;;55.10;;
68384;SDS011;55336;43.062;25.626;2023-12-20T06:24:23;91.25;;;52.78;;
68384;SDS011;55336;43.062;25.626;2023-12-20T06:26:53;82.45;;;51.50;;
68384;SDS011;55336;43.062;25.626;2023-12-20T06:29:19;61.17;;;43.58;;
68384;SDS011;55336;43.062;25.626;2023-12-20T06:31:45;69.25;;;46.28;;
68384;SDS011;55336;43.062;25.626;2023-12-20T06:34:11;66.45;;;46.03;;
68384;SDS011;55336;43.062;25.626;2023-12-20T06:36:37;64.13;;;45.00;;
68384;SDS011;55336;43.062;25.626;2023-12-20T06:39:02;63.30;;;43.88;;
68384;SDS011;55336;43.062;25.626;2023-12-20T06:41:29;66.93;;;45.45;;
68384;SDS011;55336;43.062;25.626;2023-12-20T06:43:55;69.30;;;44.17;;
68384;SDS011;55336;43.062;25.626;2023-12-20T06:46:21;70.90;;;47.45;;
68384;SDS011;55336;43.062;25.626;2023-12-20T06:48:47;71.28;;;49.45;;
68384;SDS011;55336;43.062;25.626;2023-12-20T06:51:16;70.13;;;49.22;;
68384;SDS011;55336;43.062;25.626;2023-12-20T06:53:42;65.07;;;47.13;;
68384;SDS011;55336;43.062;25.626;2023-12-20T06:56:09;72.43;;;49.00;;
68384;SDS011;55336;43.062;25.626;2023-12-20T06:58:37;89.93;;;57.22;;
68384;SDS011;55336;43.062;25.626;2023-12-20T07:01:03;99.05;;;62.47;;
68384;SDS011;55336;43.062;25.626;2023-12-20T07:03:29;79.18;;;54.35;;
68384;SDS011;55336;43.062;25.626;2023-12-20T07:05:55;68.85;;;47.63;;
68384;SDS011;55336;43.062;25.626;2023-12-20T07:08:21;69.65;;;47.33;;
68384;SDS011;55336;43.062;25.626;2023-12-20T07:10:47;77.20;;;52.38;;
68384;SDS011;55336;43.062;25.626;2023-12-20T07:13:12;78.30;;;57.15;;
68384;SDS011;55336;43.062;25.626;2023-12-20T07:15:39;81.93;;;53.70;;
68384;SDS011;55336;43.062;25.626;2023-12-20T07:18:05;76.28;;;53.05;;
68384;SDS011;55336;43.062;25.626;2023-12-20T07:23:06;76.47;;;54.90;;
68384;SDS011;55336;43.062;25.626;2023-12-20T07:25:32;93.85;;;58.65;;
68384;SDS011;55336;43.062;25.626;2023-12-20T07:27:58;99.82;;;64.38;;
68384;SDS011;55336;43.062;25.626;2023-12-20T07:30:24;6.53;;;5.97;;
68384;SDS011;55336;43.062;25.626;2023-12-20T07:32:50;6.10;;;5.18;;
68384;SDS011;55336;43.062;25.626;2023-12-20T07:35:17;6.97;;;6.30;;
68384;SDS011;55336;43.062;25.626;2023-12-20T07:37:43;8.50;;;3.92;;
68384;SDS011;55336;43.062;25.626;2023-12-20T07:40:09;7.60;;;5.78;;
68384;SDS011;55336;43.062;25.626;2023-12-20T07:42:35;6.55;;;5.32;;
68384;SDS011;55336;43.062;25.626;2023-12-20T07:45:01;5.65;;;5.15;;
68384;SDS011;55336;43.062;25.626;2023-12-20T07:47:28;8.63;;;5.32;;
68384;SDS011;55336;43.062;25.626;2023-12-20T07:49:54;12.10;;;5.70;;
68384;SDS011;55336;43.062;25.626;2023-12-20T07:52:20;5.55;;;5.05;;
68384;SDS011;55336;43.062;25.626;2023-12-20T07:54:47;5.55;;;5.05;;
68384;SDS011;55336;43.062;25.626;2023-12-20T07:57:13;8.02;;;4.47;;
68384;SDS011;55336;43.062;25.626;2023-12-20T07:59:39;6.75;;;4.65;;
68384;SDS011;55336;43.062;25.626;2023-12-20T08:02:05;5.72;;;3.22;;
68384;SDS011;55336;43.062;25.626;2023-12-20T08:04:33;9.27;;;4.97;;
68384;SDS011;55336;43.062;25.626;2023-12-20T08:06:59;4.45;;;4.05;;
68384;SDS011;55336;43.062;25.626;2023-12-20T08:09:25;4.45;;;3.95;;
68384;SDS011;55336;43.062;25.626;2023-12-20T08:11:51;3.35;;;3.05;;
68384;SDS011;55336;43.062;25.626;2023-12-20T08:14:36;2.97;;;2.78;;
68384;SDS011;55336;43.062;25.626;2023-12-20T08:21:02;4.23;;;3.63;;
68384;SDS011;55336;43.062;25.626;2023-12-20T08:23:28;2.90;;;2.70;;
68384;SDS011;55336;43.062;25.626;2023-12-20T08:25:54;3.90;;;3.53;;
68384;SDS011;55336;43.062;25.626;2023-12-20T08:28:20;3.30;;;3.10;;
68384;SDS011;55336;43.062;25.626;2023-12-20T08:30:46;2.55;;;2.38;;
68384;SDS011;55336;43.062;25.626;2023-12-20T08:33:11;4.10;;;2.72;;
68384;SDS011;55336;43.062;25.626;2023-12-20T08:35:38;2.08;;;1.98;;
68384;SDS011;55336;43.062;25.626;2023-12-20T08:38:05;3.65;;;2.83;;
68384;SDS011;55336;43.062;25.626;2023-12-20T08:40:31;3.28;;;2.90;;
68384;SDS011;55336;43.062;25.626;2023-12-20T08:42:57;5.53;;;2.45;;
68384;SDS011;55336;43.062;25.626;2023-12-20T08:45:23;2.42;;;2.25;;
68384;SDS011;55336;43.062;25.626;2023-12-20T08:47:49;2.70;;;2.35;;
68384;SDS011;55336;43.062;25.626;2023-12-20T08:50:15;2.53;;;2.30;;
68384;SDS011;55336;43.062;25.626;2023-12-20T08:52:41;2.75;;;2.55;;
68384;SDS011;55336;43.062;25.626;2023-12-20T08:57:45;4.57;;;2.42;;
68384;SDS011;55336;43.062;25.626;2023-12-20T09:00:12;3.35;;;3.08;;
68384;SDS011;55336;43.062;25.626;2023-12-20T09:02:38;6.90;;;3.10;;
68384;SDS011;55336;43.062;25.626;2023-12-20T09:05:04;2.42;;;2.33;;
68384;SDS011;55336;43.062;25.626;2023-12-20T09:07:30;3.85;;;2.33;;
68384;SDS011;55336;43.062;25.626;2023-12-20T09:09:57;2.75;;;2.35;;
68384;SDS011;55336;43.062;25.626;2023-12-20T09:12:23;2.75;;;2.55;;
68384;SDS011;55336;43.062;25.626;2023-12-20T09:14:50;2.53;;;2.33;;
68384;SDS011;55336;43.062;25.626;2023-12-20T09:17:17;3.38;;;2.58;;
68384;SDS011;55336;43.062;25.626;2023-12-20T09:19:43;2.40;;;2.20;;
68384;SDS011;55336;43.062;25.626;2023-12-20T09:22:09;4.43;;;3.40;;
68384;SDS011;55336;43.062;25.626;2023-12-20T09:24:36;2.20;;;2.05;;
68384;SDS011;55336;43.062;25.626;2023-12-20T09:29:31;3.15;;;2.90;;
68384;SDS011;55336;43.062;25.626;2023-12-20T09:34:55;4.03;;;3.72;;
68384;SDS011;55336;43.062;25.626;2023-12-20T09:37:33;2.22;;;2.10;;
68384;SDS011;55336;43.062;25.626;2023-12-20T09:39:59;5.70;;;3.90;;
68384;SDS011;55336;43.062;25.626;2023-12-20T09:45:18;1.45;;;1.45;;
68384;SDS011;55336;43.062;25.626;2023-12-20T09:47:47;3.15;;;2.85;;
68384;SDS011;55336;43.062;25.626;2023-12-20T09:50:15;2.53;;;2.38;;
68384;SDS011;55336;43.062;25.626;2023-12-20T09:59:18;2.40;;;2.30;;
68384;SDS011;55336;43.062;25.626;2023-12-20T10:01:50;3.10;;;2.90;;
68384;SDS011;55336;43.062;25.626;2023-12-20T10:05:14;1.80;;;1.75;;
68384;SDS011;55336;43.062;25.626;2023-12-20T10:07:45;4.47;;;3.25;;
68384;SDS011;55336;43.062;25.626;2023-12-20T10:10:12;2.15;;;2.03;;
68384;SDS011;55336;43.062;25.626;2023-12-20T10:12:39;1.73;;;1.63;;
68384;SDS011;55336;43.062;25.626;2023-12-20T10:17:31;1.20;;;1.20;;
68384;SDS011;55336;43.062;25.626;2023-12-20T10:20:00;2.08;;;1.98;;
68384;SDS011;55336;43.062;25.626;2023-12-20T10:24:53;2.22;;;2.03;;
68384;SDS011;55336;43.062;25.626;2023-12-20T10:27:21;1.50;;;1.40;;
68384;SDS011;55336;43.062;25.626;2023-12-20T10:32:25;1.88;;;1.33;;
68384;SDS011;55336;43.062;25.626;2023-12-20T10:34:55;5.80;;;2.42;;
68384;SDS011;55336;43.062;25.626;2023-12-20T10:37:21;2.30;;;2.15;;
68384;SDS011;55336;43.062;25.626;2023-12-20T10:39:51;1.23;;;1.23;;
68384;SDS011;55336;43.062;25.626;2023-12-20T10:45:38;3.40;;;2.13;;
68384;SDS011;55336;43.062;25.626;2023-12-20T10:48:06;1.10;;;0.63;;
68384;SDS011;55336;43.062;25.626;2023-12-20T10:50:34;1.20;;;0.98;;
68384;SDS011;55336;43.062;25.626;2023-12-20T10:53:05;0.65;;;0.65;;
68384;SDS011;55336;43.062;25.626;2023-12-20T10:55:32;1.55;;;1.38;;
68384;SDS011;55336;43.062;25.626;2023-12-20T10:58:17;3.20;;;1.58;;
68384;SDS011;55336;43.062;25.626;2023-12-20T11:00:45;1.47;;;1.37;;
68384;SDS011;55336;43.062;25.626;2023-12-20T11:03:16;0.55;;;0.55;;
68384;SDS011;55336;43.062;25.626;2023-12-20T11:05:50;1.23;;;1.23;;
68384;SDS011;55336;43.062;25.626;2023-12-20T11:08:41;3.38;;;2.85;;
68384;SDS011;55336;43.062;25.626;2023-12-20T11:14:07;37.38;;;30.90;;
68384;SDS011;55336;43.062;25.626;2023-12-20T11:16:38;39.20;;;30.67;;
68384;SDS011;55336;43.062;25.626;2023-12-20T11:19:06;37.67;;;30.05;;
68384;SDS011;55336;43.062;25.626;2023-12-20T11:23:58;36.65;;;28.75;;
68384;SDS011;55336;43.062;25.626;2023-12-20T11:26:28;26.75;;;21.70;;
68384;SDS011;55336;43.062;25.626;2023-12-20T11:29:22;30.67;;;23.02;;
68384;SDS011;55336;43.062;25.626;2023-12-20T11:31:59;49.92;;;27.48;;
68384;SDS011;55336;43.062;25.626;2023-12-20T11:34:26;59.20;;;27.75;;
68384;SDS011;55336;43.062;25.626;2023-12-20T11:37:00;35.22;;;27.15;;
68384;SDS011;55336;43.062;25.626;2023-12-20T11:39:28;31.33;;;23.13;;
68384;SDS011;55336;43.062;25.626;2023-12-20T11:41:56;23.80;;;20.00;;
68384;SDS011;55336;43.062;25.626;2023-12-20T11:44:22;25.67;;;19.02;;
68384;SDS011;55336;43.062;25.626;2023-12-20T11:46:50;23.65;;;18.35;;
68384;SDS011;55336;43.062;25.626;2023-12-20T11:49:22;28.95;;;18.88;;
68384;SDS011;55336;43.062;25.626;2023-12-20T11:51:48;23.35;;;18.33;;
68384;SDS011;55336;43.062;25.626;2023-12-20T11:56:41;21.83;;;18.73;;
68384;SDS011;55336;43.062;25.626;2023-12-20T12:01:33;23.58;;;18.33;;
68384;SDS011;55336;43.062;25.626;2023-12-20T12:04:04;28.17;;;18.25;;
68384;SDS011;55336;43.062;25.626;2023-12-20T12:06:33;30.83;;;19.02;;
68384;SDS011;55336;43.062;25.626;2023-12-20T12:08:59;24.10;;;17.33;;
68384;SDS011;55336;43.062;25.626;2023-12-20T12:13:50;25.83;;;17.48;;
68384;SDS011;55336;43.062;25.626;2023-12-20T12:21:10;28.13;;;18.92;;
68384;SDS011;55336;43.062;25.626;2023-12-20T12:26:03;30.85;;;21.10;;
68384;SDS011;55336;43.062;25.626;2023-12-20T12:28:29;31.70;;;17.60;;
68384;SDS011;55336;43.062;25.626;2023-12-20T12:31:00;19.60;;;16.60;;
68384;SDS011;55336;43.062;25.626;2023-12-20T12:33:26;20.77;;;14.38;;
68384;SDS011;55336;43.062;25.626;2023-12-20T12:35:52;14.70;;;12.00;;
68384;SDS011;55336;43.062;25.626;2023-12-20T12:43:32;20.13;;;13.82;;
68384;SDS011;55336;43.062;25.626;2023-12-20T12:48:24;21.17;;;12.50;;
68384;SDS011;55336;43.062;25.626;2023-12-20T12:50:50;16.70;;;11.40;;
68384;SDS011;55336;43.062;25.626;2023-12-20T12:53:18;18.40;;;11.88;;
68384;SDS011;55336;43.062;25.626;2023-12-20T12:58:09;19.38;;;13.65;;
68384;SDS011;55336;43.062;25.626;2023-12-20T13:03:01;42.97;;;17.58;;
68384;SDS011;55336;43.062;25.626;2023-12-20T13:05:27;22.77;;;15.27;;
68384;SDS011;55336;43.062;25.626;2023-12-20T13:10:18;24.17;;;15.75;;
68384;SDS011;55336;43.062;25.626;2023-12-20T13:12:45;27.25;;;15.93;;
68384;SDS011;55336;43.062;25.626;2023-12-20T13:17:36;19.70;;;13.20;;
68384;SDS011;55336;43.062;25.626;2023-12-20T13:20:03;30.58;;;16.80;;
68384;SDS011;55336;43.062;25.626;2023-12-20T13:22:29;99.60;;;47.50;;
68384;SDS011;55336;43.062;25.626;2023-12-20T13:24:57;149.50;;;66.82;;
68384;SDS011;55336;43.062;25.626;2023-12-20T13:29:49;188.88;;;76.40;;
68384;SDS011;55336;43.062;25.626;2023-12-20T13:34:40;160.73;;;62.85;;
68384;SDS011;55336;43.062;25.626;2023-12-20T13:39:32;158.02;;;56.10;;
68384;SDS011;55336;43.062;25.626;2023-12-20T13:44:24;79.13;;;38.08;;
68384;SDS011;55336;43.062;25.626;2023-12-20T13:49:15;67.57;;;28.90;;
68384;SDS011;55336;43.062;25.626;2023-12-20T13:54:07;36.92;;;18.85;;
68384;SDS011;55336;43.062;25.626;2023-12-20T13:56:36;29.20;;;16.35;;
68384;SDS011;55336;43.062;25.626;2023-12-20T14:01:27;31.13;;;16.75;;
68384;SDS011;55336;43.062;25.626;2023-12-20T14:06:19;83.45;;;23.65;;
68384;SDS011;55336;43.062;25.626;2023-12-20T14:11:10;71.43;;;25.02;;
68384;SDS011;55336;43.062;25.626;2023-12-20T14:13:37;71.75;;;23.98;;
68384;SDS011;55336;43.062;25.626;2023-12-20T14:18:32;61.50;;;22.48;;
68384;SDS011;55336;43.062;25.626;2023-12-20T14:20:58;42.58;;;17.98;;
68384;SDS011;55336;43.062;25.626;2023-12-20T14:23:25;32.83;;;17.42;;
68384;SDS011;55336;43.062;25.626;2023-12-20T14:28:16;21.63;;;14.98;;
68384;SDS011;55336;43.062;25.626;2023-12-20T14:33:08;24.85;;;14.85;;
68384;SDS011;55336;43.062;25.626;2023-12-20T14:35:34;28.92;;;15.20;;
68384;SDS011;55336;43.062;25.626;2023-12-20T14:40:26;29.75;;;17.20;;
68384;SDS011;55336;43.062;25.626;2023-12-20T14:45:21;35.45;;;17.38;;
68384;SDS011;55336;43.062;25.626;2023-12-20T14:50:14;29.88;;;18.30;;
68384;SDS011;55336;43.062;25.626;2023-12-20T14:52:46;29.25;;;16.48;;
68384;SDS011;55336;43.062;25.626;2023-12-20T14:55:12;23.38;;;16.17;;
68384;SDS011;55336;43.062;25.626;2023-12-20T15:00:04;31.05;;;16.05;;
68384;SDS011;55336;43.062;25.626;2023-12-20T15:02:31;26.05;;;16.17;;
68384;SDS011;55336;43.062;25.626;2023-12-20T15:04:58;25.45;;;14.30;;
68384;SDS011;55336;43.062;25.626;2023-12-20T15:07:24;35.97;;;16.17;;
68384;SDS011;55336;43.062;25.626;2023-12-20T15:09:50;31.92;;;15.13;;
68384;SDS011;55336;43.062;25.626;2023-12-20T15:14:42;28.88;;;16.98;;
68384;SDS011;55336;43.062;25.626;2023-12-20T15:17:07;33.97;;;16.55;;
68384;SDS011;55336;43.062;25.626;2023-12-20T15:19:34;35.15;;;18.42;;
68384;SDS011;55336;43.062;25.626;2023-12-20T15:22:00;32.17;;;15.52;;
68384;SDS011;55336;43.062;25.626;2023-12-20T15:24:27;29.48;;;16.08;;
68384;SDS011;55336;43.062;25.626;2023-12-20T15:27:01;27.73;;;15.20;;
68384;SDS011;55336;43.062;25.626;2023-12-20T15:29:29;29.23;;;15.15;;
68384;SDS011;55336;43.062;25.626;2023-12-20T15:31:56;27.48;;;15.98;;
68384;SDS011;55336;43.062;25.626;2023-12-20T15:34:21;24.38;;;15.32;;
68384;SDS011;55336;43.062;25.626;2023-12-20T15:39:13;42.75;;;17.67;;
68384;SDS011;55336;43.062;25.626;2023-12-20T15:41:39;32.72;;;15.95;;
68384;SDS011;55336;43.062;25.626;2023-12-20T15:44:05;33.63;;;17.25;;
68384;SDS011;55336;43.062;25.626;2023-12-20T15:46:31;30.67;;;17.15;;
68384;SDS011;55336;43.062;25.626;2023-12-20T15:48:57;28.05;;;17.77;;
68384;SDS011;55336;43.062;25.626;2023-12-20T15:51:23;25.00;;;16.08;;
68384;SDS011;55336;43.062;25.626;2023-12-20T15:53:49;26.63;;;17.40;;
68384;SDS011;55336;43.062;25.626;2023-12-20T15:56:16;29.00;;;16.92;;
68384;SDS011;55336;43.062;25.626;2023-12-20T15:58:42;24.42;;;15.85;;
68384;SDS011;55336;43.062;25.626;2023-12-20T16:01:08;22.98;;;16.77;;
68384;SDS011;55336;43.062;25.626;2023-12-20T16:03:34;25.27;;;17.70;;
68384;SDS011;55336;43.062;25.626;2023-12-20T16:08:46;25.60;;;19.08;;
68384;SDS011;55336;43.062;25.626;2023-12-20T16:11:12;28.88;;;21.10;;